Custer, WA (98240)

10:25 AM PDT on October 21, 2014 (GMT -0700)
NE Ferndale | Change Station
CLOSE
Current Station
Personal Weather Station
Location: Ferndale, WA
Elevation: 69 ft
Nearby Weather Stations
Active Advisory: Wind Advisory

Elev 69 ft 48.90 °N, 122.58 °W | Updated 13 minutes ago

Partly Cloudy
Partly Cloudy
56.9 °F
Feels Like 56.9 °F
N
5.0
Wind Variable Wind from South
Gusts 11.0 mph

Today
High -- | Low -- °F
--% Chance of Precip.
Yesterday
High -- | Low -- °F
Precip. -- in
7:40 AM 6:08 PM
Waning Crescent, 5% visible
Pressure 29.88 in
Visibility 10.0 miles
Clouds Clear
Dew Point 53 °F
Humidity 87%
Rainfall 0.02 in
Snow Depth Not available.
UV 1 out of 12
Pollen .40 out of 12
PM2.5 Good
Flu Activity Sporadic
METAR KBLI 211653Z 16011KT 10SM CLR 14/10 A2985 RMK AO2 SLP116 T01390100

More Conditions Fewer Conditions

Pressure 29.88 in
Visibility 10.0 miles
Clouds Clear
Dew Point 53 °F
Humidity 87%
Rainfall 0.02 in
Snow Depth Not available.
UV 1 out of 12
Pollen .40 out of 12
PM2.5 Good
Flu Activity Sporadic
METAR KBLI 211653Z 16011KT 10SM CLR 14/10 A2985 RMK AO2 SLP116 T01390100

More Conditions Fewer Conditions

10-Day Weather Forecast

Almanac

Astronomy

Oct. 21, 2014 Rise Set
Actual Time 7:40 AM PDT 6:08 PM PDT
Civil Twilight 7:08 AM PDT 6:41 PM PDT
Nautical Twilight 6:31 AM PDT 7:17 PM PDT
Astronomical Twilight 5:54 AM PDT 7:54 PM PDT
Moon 5:19 AM PDT 5:14 PM PDT
Length of Visible Light 11h 33m
Length of Day
10h 28m
Tomorrow will be 3m 24s shorter.
Waning Crescent, 5% of the Moon is Illuminated
Today
Waning Crescent
Oct 23
New
Oct 30
First Quarter
Nov 6
Full
Nov 14
Last Quarter

Today's Extremes

State Highs State Lows

Community

WunderPhotos

Upload Photos

1,763,726 photos uploaded!

Nearby

Air Quality

  Air Quality AQ Index Pollutant
Yesterday Good
OZONE
Yesterday Good
PM2.5
Current Good
PM2.5
Tuesday Good
OZONE
Tuesday Good
PM2.5
Wednesday Good
OZONE
Wednesday Good
PM2.5
Thursday Good
OZONE
Thursday Good
PM2.5
Friday Good
OZONE
Friday Good
PM2.5

Snow Depth

Station Depth Elevation
Mf Nooksack 1 in 4980 ft
Wells Creek 0 in 4200 ft
Beaver Pass 0 in 3620 ft
Hozomeen Camp 1 in 1650 ft
Dungeness 0 in 4100 ft

Earthquake Activity

City Distance Mag. Time & Date
No recent earthquake activity has been reported nearby.
Minimum magnitude displayed is 2.5.

Coastal Water Temperatures

Place Temperature
Port Townsend, WA 53.1 °F
Friday Harbor, WA 51.1 °F
Port Angeles, WA 57.0 °F

Nearby Weather Stations